Nulato, Alaska
Current Conditions -  °F | °C
As of 4:53 AM on Thursday 29 Jan 2015 (Local Time) from PAKV Reporting Station
Clear Clear  
Wind Chill: -29°   Ceiling: Unl
Heat Index: -29°   Visibility: 10mi
Dew Point: -37°   Wind: 3mph
Humidity: 66%   Direction: 220°SW
Pressure: 30.61"   Gusts: NA
Location:  64.72°N, 158.13°W
Report Text: PAKV 291353Z AUTO 22003KT 10SM CLR M34/M38 A3061 RMK AO1 SLP374 T13391383 FZRANO TSNO
Loading
Personal Weather Stations






























Interactive Weather Map New forecast layout! Learn more

10-Day Weather Forecast

Advertisements
Track Severe Weather on mobile